sensor_id;sensor_type;location;lat;lon;timestamp;P1;durP1;ratioP1;P2;durP2;ratioP2
73557;SDS011;61829;53.286;10.434;2023-04-01T00:01:46;8.43;;;4.22;;
73557;SDS011;61829;53.286;10.434;2023-04-01T00:04:12;7.03;;;3.08;;
73557;SDS011;61829;53.286;10.434;2023-04-01T00:06:38;8.43;;;2.90;;
73557;SDS011;61829;53.286;10.434;2023-04-01T00:09:04;4.95;;;2.83;;
73557;SDS011;61829;53.286;10.434;2023-04-01T00:11:29;8.02;;;2.88;;
73557;SDS011;61829;53.286;10.434;2023-04-01T00:13:55;6.47;;;2.67;;
73557;SDS011;61829;53.286;10.434;2023-04-01T00:16:21;6.32;;;2.53;;
73557;SDS011;61829;53.286;10.434;2023-04-01T00:18:48;7.28;;;3.22;;
73557;SDS011;61829;53.286;10.434;2023-04-01T00:21:16;7.07;;;2.58;;
73557;SDS011;61829;53.286;10.434;2023-04-01T00:23:42;5.43;;;2.58;;
73557;SDS011;61829;53.286;10.434;2023-04-01T00:26:08;8.55;;;2.63;;
73557;SDS011;61829;53.286;10.434;2023-04-01T00:28:35;7.30;;;2.58;;
73557;SDS011;61829;53.286;10.434;2023-04-01T00:31:05;7.38;;;2.70;;
73557;SDS011;61829;53.286;10.434;2023-04-01T00:33:33;7.32;;;2.63;;
73557;SDS011;61829;53.286;10.434;2023-04-01T00:36:09;6.22;;;2.42;;
73557;SDS011;61829;53.286;10.434;2023-04-01T00:38:40;8.60;;;2.80;;
73557;SDS011;61829;53.286;10.434;2023-04-01T00:41:07;6.43;;;2.85;;
73557;SDS011;61829;53.286;10.434;2023-04-01T00:43:40;6.45;;;2.90;;
73557;SDS011;61829;53.286;10.434;2023-04-01T00:46:10;8.80;;;2.92;;
73557;SDS011;61829;53.286;10.434;2023-04-01T00:48:58;6.50;;;2.83;;
73557;SDS011;61829;53.286;10.434;2023-04-01T00:51:25;5.97;;;2.70;;
73557;SDS011;61829;53.286;10.434;2023-04-01T00:53:55;5.63;;;2.65;;
73557;SDS011;61829;53.286;10.434;2023-04-01T00:56:27;6.63;;;2.58;;
73557;SDS011;61829;53.286;10.434;2023-04-01T00:59:00;7.43;;;3.05;;
73557;SDS011;61829;53.286;10.434;2023-04-01T01:01:29;7.50;;;2.53;;
73557;SDS011;61829;53.286;10.434;2023-04-01T01:03:56;8.20;;;3.00;;
73557;SDS011;61829;53.286;10.434;2023-04-01T01:14:39;5.95;;;2.50;;
73557;SDS011;61829;53.286;10.434;2023-04-01T01:28:28;4.97;;;2.05;;
73557;SDS011;61829;53.286;10.434;2023-04-01T01:36:28;8.63;;;2.00;;
73557;SDS011;61829;53.286;10.434;2023-04-01T01:39:00;5.38;;;1.90;;
73557;SDS011;61829;53.286;10.434;2023-04-01T01:41:28;6.03;;;2.00;;
73557;SDS011;61829;53.286;10.434;2023-04-01T01:43:57;5.65;;;1.90;;
73557;SDS011;61829;53.286;10.434;2023-04-01T01:46:25;6.35;;;2.00;;
73557;SDS011;61829;53.286;10.434;2023-04-01T01:48:54;6.00;;;1.90;;
73557;SDS011;61829;53.286;10.434;2023-04-01T01:51:21;5.07;;;1.85;;
73557;SDS011;61829;53.286;10.434;2023-04-01T01:53:48;5.22;;;1.83;;
73557;SDS011;61829;53.286;10.434;2023-04-01T01:56:14;15.30;;;2.92;;
73557;SDS011;61829;53.286;10.434;2023-04-01T01:58:45;5.30;;;2.03;;
73557;SDS011;61829;53.286;10.434;2023-04-01T02:01:19;5.47;;;2.30;;
73557;SDS011;61829;53.286;10.434;2023-04-01T02:03:49;5.93;;;2.00;;
73557;SDS011;61829;53.286;10.434;2023-04-01T02:06:18;7.90;;;2.13;;
73557;SDS011;61829;53.286;10.434;2023-04-01T02:11:17;5.28;;;1.75;;
73557;SDS011;61829;53.286;10.434;2023-04-01T02:17:27;4.10;;;2.00;;
73557;SDS011;61829;53.286;10.434;2023-04-01T02:19:38;4.45;;;1.85;;
73557;SDS011;61829;53.286;10.434;2023-04-01T02:22:29;7.60;;;2.20;;
73557;SDS011;61829;53.286;10.434;2023-04-01T02:25:00;6.90;;;2.05;;
73557;SDS011;61829;53.286;10.434;2023-04-01T02:27:31;8.10;;;2.25;;
73557;SDS011;61829;53.286;10.434;2023-04-01T02:29:57;7.70;;;2.08;;
73557;SDS011;61829;53.286;10.434;2023-04-01T02:32:24;6.05;;;2.00;;
73557;SDS011;61829;53.286;10.434;2023-04-01T02:34:52;6.57;;;2.83;;
73557;SDS011;61829;53.286;10.434;2023-04-01T02:37:19;4.85;;;1.92;;
73557;SDS011;61829;53.286;10.434;2023-04-01T02:39:45;6.40;;;2.40;;
73557;SDS011;61829;53.286;10.434;2023-04-01T02:42:11;4.93;;;1.92;;
73557;SDS011;61829;53.286;10.434;2023-04-01T02:44:36;5.43;;;2.08;;
73557;SDS011;61829;53.286;10.434;2023-04-01T02:47:03;7.97;;;2.85;;
73557;SDS011;61829;53.286;10.434;2023-04-01T02:49:29;6.95;;;2.65;;
73557;SDS011;61829;53.286;10.434;2023-04-01T02:51:55;5.70;;;1.98;;
73557;SDS011;61829;53.286;10.434;2023-04-01T02:54:21;5.03;;;2.17;;
73557;SDS011;61829;53.286;10.434;2023-04-01T02:56:47;5.78;;;2.35;;
73557;SDS011;61829;53.286;10.434;2023-04-01T02:59:12;8.57;;;2.42;;
73557;SDS011;61829;53.286;10.434;2023-04-01T03:01:39;5.20;;;2.50;;
73557;SDS011;61829;53.286;10.434;2023-04-01T03:04:04;3.65;;;1.80;;
73557;SDS011;61829;53.286;10.434;2023-04-01T03:06:31;8.30;;;2.22;;
73557;SDS011;61829;53.286;10.434;2023-04-01T03:08:56;6.43;;;2.63;;
73557;SDS011;61829;53.286;10.434;2023-04-01T03:11:22;8.60;;;2.63;;
73557;SDS011;61829;53.286;10.434;2023-04-01T03:13:48;8.90;;;2.78;;
73557;SDS011;61829;53.286;10.434;2023-04-01T03:16:14;8.55;;;2.72;;
73557;SDS011;61829;53.286;10.434;2023-04-01T03:18:40;5.28;;;2.22;;
73557;SDS011;61829;53.286;10.434;2023-04-01T03:21:17;5.40;;;2.13;;
73557;SDS011;61829;53.286;10.434;2023-04-01T03:23:45;7.05;;;2.25;;
73557;SDS011;61829;53.286;10.434;2023-04-01T03:26:14;5.82;;;2.70;;
73557;SDS011;61829;53.286;10.434;2023-04-01T03:28:40;6.95;;;2.42;;
73557;SDS011;61829;53.286;10.434;2023-04-01T03:31:06;7.60;;;2.13;;
73557;SDS011;61829;53.286;10.434;2023-04-01T03:33:32;7.10;;;2.30;;
73557;SDS011;61829;53.286;10.434;2023-04-01T03:35:58;8.02;;;2.47;;
73557;SDS011;61829;53.286;10.434;2023-04-01T03:38:24;6.40;;;2.58;;
73557;SDS011;61829;53.286;10.434;2023-04-01T03:40:50;7.07;;;2.53;;
73557;SDS011;61829;53.286;10.434;2023-04-01T03:43:16;5.28;;;2.38;;
73557;SDS011;61829;53.286;10.434;2023-04-01T03:45:46;9.15;;;2.67;;
73557;SDS011;61829;53.286;10.434;2023-04-01T03:48:16;8.27;;;2.70;;
73557;SDS011;61829;53.286;10.434;2023-04-01T03:50:42;6.05;;;2.40;;
73557;SDS011;61829;53.286;10.434;2023-04-01T03:53:09;10.35;;;2.60;;
73557;SDS011;61829;53.286;10.434;2023-04-01T03:55:35;6.10;;;2.05;;
73557;SDS011;61829;53.286;10.434;2023-04-01T03:58:01;4.22;;;1.90;;
73557;SDS011;61829;53.286;10.434;2023-04-01T04:00:28;5.38;;;2.40;;
73557;SDS011;61829;53.286;10.434;2023-04-01T04:02:55;7.07;;;2.05;;
73557;SDS011;61829;53.286;10.434;2023-04-01T04:05:24;5.78;;;2.13;;
73557;SDS011;61829;53.286;10.434;2023-04-01T04:07:50;5.40;;;2.03;;
73557;SDS011;61829;53.286;10.434;2023-04-01T04:10:17;8.38;;;2.55;;
73557;SDS011;61829;53.286;10.434;2023-04-01T04:12:43;9.10;;;2.53;;
73557;SDS011;61829;53.286;10.434;2023-04-01T04:15:09;5.20;;;2.25;;
73557;SDS011;61829;53.286;10.434;2023-04-01T04:17:36;3.78;;;1.90;;
73557;SDS011;61829;53.286;10.434;2023-04-01T04:20:02;5.20;;;2.50;;
73557;SDS011;61829;53.286;10.434;2023-04-01T04:22:28;8.18;;;2.45;;
73557;SDS011;61829;53.286;10.434;2023-04-01T04:24:54;7.18;;;2.33;;
73557;SDS011;61829;53.286;10.434;2023-04-01T04:27:20;6.45;;;2.50;;
73557;SDS011;61829;53.286;10.434;2023-04-01T04:29:46;6.65;;;2.25;;
73557;SDS011;61829;53.286;10.434;2023-04-01T04:32:12;6.13;;;2.40;;
73557;SDS011;61829;53.286;10.434;2023-04-01T04:34:38;7.05;;;2.30;;
73557;SDS011;61829;53.286;10.434;2023-04-01T04:37:04;5.00;;;2.58;;
73557;SDS011;61829;53.286;10.434;2023-04-01T04:39:30;8.65;;;2.63;;
73557;SDS011;61829;53.286;10.434;2023-04-01T04:41:55;8.38;;;3.17;;
73557;SDS011;61829;53.286;10.434;2023-04-01T04:44:21;6.20;;;2.63;;
73557;SDS011;61829;53.286;10.434;2023-04-01T04:46:47;6.35;;;2.50;;
73557;SDS011;61829;53.286;10.434;2023-04-01T04:49:13;6.47;;;2.72;;
73557;SDS011;61829;53.286;10.434;2023-04-01T04:51:39;7.32;;;3.10;;
73557;SDS011;61829;53.286;10.434;2023-04-01T04:54:05;5.07;;;2.97;;
73557;SDS011;61829;53.286;10.434;2023-04-01T04:56:32;7.50;;;3.03;;
73557;SDS011;61829;53.286;10.434;2023-04-01T04:58:58;9.35;;;3.42;;
73557;SDS011;61829;53.286;10.434;2023-04-01T05:01:25;8.65;;;3.40;;
73557;SDS011;61829;53.286;10.434;2023-04-01T05:03:51;6.88;;;2.80;;
73557;SDS011;61829;53.286;10.434;2023-04-01T05:06:17;8.73;;;3.08;;
73557;SDS011;61829;53.286;10.434;2023-04-01T05:11:14;5.13;;;2.80;;
73557;SDS011;61829;53.286;10.434;2023-04-01T05:13:42;8.25;;;3.40;;
73557;SDS011;61829;53.286;10.434;2023-04-01T05:16:10;6.43;;;3.00;;
73557;SDS011;61829;53.286;10.434;2023-04-01T05:18:38;8.93;;;3.28;;
73557;SDS011;61829;53.286;10.434;2023-04-01T05:21:04;6.97;;;3.00;;
73557;SDS011;61829;53.286;10.434;2023-04-01T05:23:36;7.57;;;3.20;;
73557;SDS011;61829;53.286;10.434;2023-04-01T05:26:03;9.13;;;3.03;;
73557;SDS011;61829;53.286;10.434;2023-04-01T05:28:34;7.78;;;3.45;;
73557;SDS011;61829;53.286;10.434;2023-04-01T05:31:00;9.63;;;3.15;;
73557;SDS011;61829;53.286;10.434;2023-04-01T05:33:28;6.10;;;2.97;;
73557;SDS011;61829;53.286;10.434;2023-04-01T05:38:20;7.15;;;3.08;;
73557;SDS011;61829;53.286;10.434;2023-04-01T05:40:46;8.98;;;3.42;;
73557;SDS011;61829;53.286;10.434;2023-04-01T05:43:12;5.93;;;2.95;;
73557;SDS011;61829;53.286;10.434;2023-04-01T05:45:38;7.72;;;3.00;;
73557;SDS011;61829;53.286;10.434;2023-04-01T05:48:04;7.05;;;3.38;;
73557;SDS011;61829;53.286;10.434;2023-04-01T05:50:30;6.38;;;3.15;;
73557;SDS011;61829;53.286;10.434;2023-04-01T05:52:56;7.68;;;3.35;;
73557;SDS011;61829;53.286;10.434;2023-04-01T05:55:22;8.55;;;3.50;;
73557;SDS011;61829;53.286;10.434;2023-04-01T05:57:48;8.38;;;3.38;;
73557;SDS011;61829;53.286;10.434;2023-04-01T06:00:15;10.00;;;3.72;;
73557;SDS011;61829;53.286;10.434;2023-04-01T06:02:42;9.68;;;3.72;;
73557;SDS011;61829;53.286;10.434;2023-04-01T06:05:13;6.13;;;3.40;;
73557;SDS011;61829;53.286;10.434;2023-04-01T06:07:42;5.97;;;3.17;;
73557;SDS011;61829;53.286;10.434;2023-04-01T06:10:16;10.27;;;3.78;;
73557;SDS011;61829;53.286;10.434;2023-04-01T06:15:33;10.30;;;3.80;;
73557;SDS011;61829;53.286;10.434;2023-04-01T06:18:12;7.90;;;3.90;;
73557;SDS011;61829;53.286;10.434;2023-04-01T06:26:30;6.38;;;3.67;;
73557;SDS011;61829;53.286;10.434;2023-04-01T06:29:21;2.72;;;1.55;;
73557;SDS011;61829;53.286;10.434;2023-04-01T06:50:51;2.90;;;1.50;;
73557;SDS011;61829;53.286;10.434;2023-04-01T06:53:33;2.78;;;1.60;;
73557;SDS011;61829;53.286;10.434;2023-04-01T06:56:12;2.38;;;1.40;;
73557;SDS011;61829;53.286;10.434;2023-04-01T06:58:48;3.50;;;1.23;;
73557;SDS011;61829;53.286;10.434;2023-04-01T07:01:33;3.20;;;1.50;;
73557;SDS011;61829;53.286;10.434;2023-04-01T07:04:09;2.42;;;1.17;;
73557;SDS011;61829;53.286;10.434;2023-04-01T07:06:45;1.50;;;0.93;;
73557;SDS011;61829;53.286;10.434;2023-04-01T07:09:18;1.10;;;0.80;;
73557;SDS011;61829;53.286;10.434;2023-04-01T07:11:47;2.92;;;1.10;;
73557;SDS011;61829;53.286;10.434;2023-04-01T07:14:22;1.65;;;1.05;;
73557;SDS011;61829;53.286;10.434;2023-04-01T07:16:56;1.38;;;0.88;;
73557;SDS011;61829;53.286;10.434;2023-04-01T07:19:32;1.55;;;1.00;;
73557;SDS011;61829;53.286;10.434;2023-04-01T07:22:04;1.85;;;1.10;;
73557;SDS011;61829;53.286;10.434;2023-04-01T07:24:39;1.83;;;1.10;;
73557;SDS011;61829;53.286;10.434;2023-04-01T07:27:12;2.00;;;1.10;;
73557;SDS011;61829;53.286;10.434;2023-04-01T07:29:39;2.08;;;1.00;;
73557;SDS011;61829;53.286;10.434;2023-04-01T07:32:17;1.35;;;0.90;;
73557;SDS011;61829;53.286;10.434;2023-04-01T07:54:18;1.08;;;0.75;;
73557;SDS011;61829;53.286;10.434;2023-04-01T07:57:08;1.00;;;0.80;;
73557;SDS011;61829;53.286;10.434;2023-04-01T08:13:10;0.93;;;0.80;;
73557;SDS011;61829;53.286;10.434;2023-04-01T08:18:41;0.55;;;0.52;;
73557;SDS011;61829;53.286;10.434;2023-04-01T08:21:35;0.85;;;0.70;;
73557;SDS011;61829;53.286;10.434;2023-04-01T08:26:54;2.13;;;0.88;;
73557;SDS011;61829;53.286;10.434;2023-04-01T08:29:26;0.80;;;0.77;;
73557;SDS011;61829;53.286;10.434;2023-04-01T08:32:09;1.73;;;0.80;;
73557;SDS011;61829;53.286;10.434;2023-04-01T08:34:38;0.70;;;0.60;;
73557;SDS011;61829;53.286;10.434;2023-04-01T08:37:08;2.03;;;0.80;;
73557;SDS011;61829;53.286;10.434;2023-04-01T08:39:49;4.85;;;0.80;;
73557;SDS011;61829;53.286;10.434;2023-04-01T08:43:02;1.92;;;0.98;;
73557;SDS011;61829;53.286;10.434;2023-04-01T08:45:39;0.95;;;0.70;;
73557;SDS011;61829;53.286;10.434;2023-04-01T08:48:18;1.83;;;1.00;;
73557;SDS011;61829;53.286;10.434;2023-04-01T08:57:01;2.60;;;1.05;;
73557;SDS011;61829;53.286;10.434;2023-04-01T09:43:05;1.15;;;0.90;;
73557;SDS011;61829;53.286;10.434;2023-04-01T09:48:15;1.80;;;1.00;;
73557;SDS011;61829;53.286;10.434;2023-04-01T09:51:03;1.15;;;0.70;;
73557;SDS011;61829;53.286;10.434;2023-04-01T10:23:45;0.85;;;0.82;;
73557;SDS011;61829;53.286;10.434;2023-04-01T10:49:35;1.13;;;0.50;;
73557;SDS011;61829;53.286;10.434;2023-04-01T11:14:56;1.20;;;0.95;;
73557;SDS011;61829;53.286;10.434;2023-04-01T11:59:27;1.58;;;1.17;;
73557;SDS011;61829;53.286;10.434;2023-04-01T12:10:40;3.03;;;1.20;;
73557;SDS011;61829;53.286;10.434;2023-04-01T12:13:32;2.08;;;1.13;;
73557;SDS011;61829;53.286;10.434;2023-04-01T12:25:14;2.47;;;1.48;;
73557;SDS011;61829;53.286;10.434;2023-04-01T12:45:28;2.90;;;1.80;;
73557;SDS011;61829;53.286;10.434;2023-04-01T12:55:53;3.95;;;2.00;;
73557;SDS011;61829;53.286;10.434;2023-04-01T13:01:10;4.40;;;2.10;;
73557;SDS011;61829;53.286;10.434;2023-04-01T13:03:53;4.55;;;1.98;;
73557;SDS011;61829;53.286;10.434;2023-04-01T13:31:05;2.88;;;1.77;;
73557;SDS011;61829;53.286;10.434;2023-04-01T13:33:58;2.85;;;1.45;;
73557;SDS011;61829;53.286;10.434;2023-04-01T13:42:33;3.30;;;1.70;;
73557;SDS011;61829;53.286;10.434;2023-04-01T14:23:47;4.57;;;1.52;;
73557;SDS011;61829;53.286;10.434;2023-04-01T14:31:53;4.22;;;2.55;;
73557;SDS011;61829;53.286;10.434;2023-04-01T14:37:40;6.28;;;2.42;;
73557;SDS011;61829;53.286;10.434;2023-04-01T14:51:43;4.07;;;2.20;;
73557;SDS011;61829;53.286;10.434;2023-04-01T15:15:48;2.78;;;1.60;;
73557;SDS011;61829;53.286;10.434;2023-04-01T15:27:40;11.00;;;2.75;;
73557;SDS011;61829;53.286;10.434;2023-04-01T15:47:33;5.30;;;2.38;;
73557;SDS011;61829;53.286;10.434;2023-04-01T15:55:19;8.40;;;3.95;;
73557;SDS011;61829;53.286;10.434;2023-04-01T16:03:57;7.55;;;2.55;;
73557;SDS011;61829;53.286;10.434;2023-04-01T16:12:30;5.35;;;2.00;;
73557;SDS011;61829;53.286;10.434;2023-04-01T16:23:08;5.97;;;2.47;;
73557;SDS011;61829;53.286;10.434;2023-04-01T16:29:05;4.30;;;2.03;;
73557;SDS011;61829;53.286;10.434;2023-04-01T16:31:47;6.43;;;2.75;;
73557;SDS011;61829;53.286;10.434;2023-04-01T16:51:32;5.93;;;2.97;;
73557;SDS011;61829;53.286;10.434;2023-04-01T16:57:14;4.55;;;2.80;;
73557;SDS011;61829;53.286;10.434;2023-04-01T16:59:58;6.90;;;3.28;;
73557;SDS011;61829;53.286;10.434;2023-04-01T17:02:52;5.72;;;2.67;;
73557;SDS011;61829;53.286;10.434;2023-04-01T17:05:42;8.80;;;4.38;;
73557;SDS011;61829;53.286;10.434;2023-04-01T17:08:45;14.48;;;4.40;;
73557;SDS011;61829;53.286;10.434;2023-04-01T17:11:26;7.63;;;3.30;;
73557;SDS011;61829;53.286;10.434;2023-04-01T17:19:37;7.78;;;2.58;;
73557;SDS011;61829;53.286;10.434;2023-04-01T17:22:13;6.53;;;2.95;;
73557;SDS011;61829;53.286;10.434;2023-04-01T17:27:59;5.10;;;2.47;;
73557;SDS011;61829;53.286;10.434;2023-04-01T17:33:31;5.88;;;3.45;;
73557;SDS011;61829;53.286;10.434;2023-04-01T17:36:08;4.68;;;2.78;;
73557;SDS011;61829;53.286;10.434;2023-04-01T17:39:18;4.93;;;2.85;;
73557;SDS011;61829;53.286;10.434;2023-04-01T17:50:02;7.32;;;2.88;;
73557;SDS011;61829;53.286;10.434;2023-04-01T17:52:42;7.22;;;3.83;;
73557;SDS011;61829;53.286;10.434;2023-04-01T17:58:17;4.53;;;2.65;;
73557;SDS011;61829;53.286;10.434;2023-04-01T18:00:49;8.07;;;3.38;;
73557;SDS011;61829;53.286;10.434;2023-04-01T18:03:24;5.85;;;3.08;;
73557;SDS011;61829;53.286;10.434;2023-04-01T18:06:13;7.20;;;3.35;;
73557;SDS011;61829;53.286;10.434;2023-04-01T18:20:14;9.77;;;4.60;;
73557;SDS011;61829;53.286;10.434;2023-04-01T18:25:44;7.90;;;3.78;;
73557;SDS011;61829;53.286;10.434;2023-04-01T18:31:18;10.70;;;4.55;;
73557;SDS011;61829;53.286;10.434;2023-04-01T18:39:41;6.55;;;3.75;;
73557;SDS011;61829;53.286;10.434;2023-04-01T18:44:43;8.27;;;4.18;;
73557;SDS011;61829;53.286;10.434;2023-04-01T18:49:55;8.25;;;2.88;;
73557;SDS011;61829;53.286;10.434;2023-04-01T18:52:35;6.40;;;2.80;;
73557;SDS011;61829;53.286;10.434;2023-04-01T18:58:06;6.43;;;2.63;;
73557;SDS011;61829;53.286;10.434;2023-04-01T19:00:38;5.10;;;2.70;;
73557;SDS011;61829;53.286;10.434;2023-04-01T19:05:54;10.30;;;3.58;;
73557;SDS011;61829;53.286;10.434;2023-04-01T19:08:32;18.98;;;3.38;;
73557;SDS011;61829;53.286;10.434;2023-04-01T19:11:10;8.77;;;2.75;;
73557;SDS011;61829;53.286;10.434;2023-04-01T19:25:25;10.27;;;2.35;;
73557;SDS011;61829;53.286;10.434;2023-04-01T19:31:01;3.17;;;1.92;;
73557;SDS011;61829;53.286;10.434;2023-04-01T19:33:44;5.45;;;2.28;;
73557;SDS011;61829;53.286;10.434;2023-04-01T19:36:39;6.32;;;2.92;;
73557;SDS011;61829;53.286;10.434;2023-04-01T19:55:03;7.63;;;3.15;;
73557;SDS011;61829;53.286;10.434;2023-04-01T19:57:42;7.93;;;3.05;;
73557;SDS011;61829;53.286;10.434;2023-04-01T20:00:36;7.35;;;3.08;;
73557;SDS011;61829;53.286;10.434;2023-04-01T20:08:48;4.20;;;2.35;;
73557;SDS011;61829;53.286;10.434;2023-04-01T20:11:32;8.82;;;2.75;;
73557;SDS011;61829;53.286;10.434;2023-04-01T20:14:48;5.60;;;2.58;;
73557;SDS011;61829;53.286;10.434;2023-04-01T20:17:01;5.32;;;2.28;;
73557;SDS011;61829;53.286;10.434;2023-04-01T20:22:17;7.88;;;3.03;;
73557;SDS011;61829;53.286;10.434;2023-04-01T20:24:58;4.80;;;2.25;;
73557;SDS011;61829;53.286;10.434;2023-04-01T20:27:31;6.10;;;1.83;;
73557;SDS011;61829;53.286;10.434;2023-04-01T20:30:22;4.78;;;2.10;;
73557;SDS011;61829;53.286;10.434;2023-04-01T20:35:33;3.60;;;1.50;;
73557;SDS011;61829;53.286;10.434;2023-04-01T20:52:02;5.25;;;2.00;;
73557;SDS011;61829;53.286;10.434;2023-04-01T20:54:46;3.28;;;1.88;;
73557;SDS011;61829;53.286;10.434;2023-04-01T21:09:27;4.90;;;2.13;;
73557;SDS011;61829;53.286;10.434;2023-04-01T21:48:12;3.63;;;0.95;;
73557;SDS011;61829;53.286;10.434;2023-04-01T21:50:43;2.58;;;1.10;;
73557;SDS011;61829;53.286;10.434;2023-04-01T22:04:56;3.20;;;0.93;;
73557;SDS011;61829;53.286;10.434;2023-04-01T22:07:31;1.60;;;0.85;;
73557;SDS011;61829;53.286;10.434;2023-04-01T22:13:10;5.05;;;1.73;;
73557;SDS011;61829;53.286;10.434;2023-04-01T22:29:26;1.48;;;0.60;;
73557;SDS011;61829;53.286;10.434;2023-04-01T22:32:12;4.78;;;0.93;;
73557;SDS011;61829;53.286;10.434;2023-04-01T22:35:13;2.30;;;0.85;;
73557;SDS011;61829;53.286;10.434;2023-04-01T22:37:49;3.53;;;1.05;;
73557;SDS011;61829;53.286;10.434;2023-04-01T22:51:05;6.80;;;1.30;;
73557;SDS011;61829;53.286;10.434;2023-04-01T22:53:36;4.47;;;1.13;;
73557;SDS011;61829;53.286;10.434;2023-04-01T22:56:24;1.90;;;0.70;;
73557;SDS011;61829;53.286;10.434;2023-04-01T22:59:00;2.60;;;1.10;;
73557;SDS011;61829;53.286;10.434;2023-04-01T23:01:43;3.25;;;1.05;;
73557;SDS011;61829;53.286;10.434;2023-04-01T23:04:15;3.33;;;1.42;;
73557;SDS011;61829;53.286;10.434;2023-04-01T23:06:50;1.45;;;0.95;;
73557;SDS011;61829;53.286;10.434;2023-04-01T23:09:25;2.38;;;1.30;;
73557;SDS011;61829;53.286;10.434;2023-04-01T23:12:04;2.17;;;0.82;;
73557;SDS011;61829;53.286;10.434;2023-04-01T23:14:36;1.58;;;0.90;;
73557;SDS011;61829;53.286;10.434;2023-04-01T23:25:25;1.65;;;0.70;;
73557;SDS011;61829;53.286;10.434;2023-04-01T23:27:42;2.78;;;1.13;;
73557;SDS011;61829;53.286;10.434;2023-04-01T23:36:10;4.38;;;1.20;;
73557;SDS011;61829;53.286;10.434;2023-04-01T23:38:38;3.70;;;1.50;;
73557;SDS011;61829;53.286;10.434;2023-04-01T23:41:27;2.60;;;0.93;;
73557;SDS011;61829;53.286;10.434;2023-04-01T23:44:04;2.38;;;1.00;;
73557;SDS011;61829;53.286;10.434;2023-04-01T23:46:34;3.03;;;1.48;;
73557;SDS011;61829;53.286;10.434;2023-04-01T23:49:02;3.25;;;1.00;;
73557;SDS011;61829;53.286;10.434;2023-04-01T23:51:35;2.88;;;0.95;;
73557;SDS011;61829;53.286;10.434;2023-04-01T23:57:19;3.13;;;1.08;;
